Terminal Aerodrome Forecast
Issued by NWS Duluth, MN

Home | Current Version | Previous Version | Text Only | Print | Product List | Glossary On
Versions: 1 2 3 4 5 6 7 8 9 10 11 12 13 14 15 16 17 18 19 20 21 22 23 24 25 26 27 28 29 30 31 32 33
284
FTUS43 KDLH 241139
TAFINL
TAF
KINL 241139Z 2412/2512 29004KT P6SM VCSH BKN014 OVC020
     FM241900 29006KT P6SM -SHRA OVC025
     FM250000 31006KT P6SM OVC020=

USA.gov is the U.S. government's official web portal to all federal, state and local government web resources and services.